createdAt,value
2022-11-28T00:02:44.029Z,5.88
2022-11-28T00:07:51.289Z,6.01
2022-11-28T00:12:57.491Z,6.01
2022-11-28T00:18:14.938Z,5.94
2022-11-28T00:23:34.856Z,5.89
2022-11-28T00:28:43.393Z,5.85
2022-11-28T00:33:48.491Z,5.81
2022-11-28T00:38:53.213Z,5.75
2022-11-28T00:43:58.437Z,5.73
2022-11-28T00:49:12.554Z,5.67
2022-11-28T00:54:48.223Z,5.65
2022-11-28T01:00:03.351Z,5.63
2022-11-28T01:05:08.562Z,5.63
2022-11-28T01:10:13.321Z,5.66
2022-11-28T01:15:17.689Z,5.73
2022-11-28T01:20:21.714Z,5.78
2022-11-28T01:25:30.348Z,5.78
2022-11-28T01:30:34.934Z,5.74
2022-11-28T01:36:11.551Z,5.72
2022-11-28T01:41:47.777Z,5.69
2022-11-28T01:47:52.145Z,5.66
2022-11-28T01:53:00.758Z,5.65
2022-11-28T01:58:39.163Z,5.62
2022-11-28T02:15:37.973Z,5.50
2022-11-28T02:21:17.357Z,5.45
2022-11-28T02:27:15.434Z,5.44
2022-11-28T02:32:52.870Z,5.47
2022-11-28T02:45:31.394Z,5.62
2022-11-28T03:00:06.551Z,5.59
2022-11-28T03:05:04.818Z,5.55
2022-11-28T03:10:45.172Z,5.49
2022-11-28T03:16:17.871Z,5.49
2022-11-28T03:21:41.700Z,5.47
2022-11-28T03:26:59.505Z,5.45
2022-11-28T03:32:12.592Z,5.46
2022-11-28T03:37:26.925Z,5.43
2022-11-28T03:42:48.301Z,5.41
2022-11-28T03:54:09.616Z,5.43
2022-11-28T03:59:27.900Z,5.52
2022-11-28T04:05:22.709Z,5.58
2022-11-28T04:10:36.575Z,5.65
2022-11-28T04:15:45.765Z,5.64
2022-11-28T04:21:12.936Z,5.66
2022-11-28T04:26:30.031Z,5.66
2022-11-28T04:31:36.532Z,5.63
2022-11-28T04:36:44.684Z,5.60
2022-11-28T04:42:06.500Z,5.54
2022-11-28T04:47:24.105Z,5.48
2022-11-28T04:52:40.046Z,5.46
2022-11-28T04:57:57.258Z,5.44
2022-11-28T05:03:02.901Z,5.42
2022-11-28T05:08:42.596Z,5.48
2022-11-28T05:13:49.574Z,5.57
2022-11-28T05:18:53.546Z,5.59
2022-11-28T05:24:03.383Z,5.61
2022-11-28T05:29:11.001Z,5.60
2022-11-28T05:34:35.488Z,5.56
2022-11-28T05:39:54.400Z,5.56
2022-11-28T05:44:58.788Z,5.53
2022-11-28T05:50:10.214Z,5.47
2022-11-28T05:55:19.397Z,5.44
2022-11-28T06:00:24.104Z,5.42
2022-11-28T06:05:42.791Z,5.40
2022-11-28T06:16:46.964Z,5.36
2022-11-28T06:21:51.873Z,5.34
2022-11-28T06:26:55.827Z,5.31
2022-11-28T06:31:59.666Z,5.32
2022-11-28T06:37:09.129Z,5.31
2022-11-28T06:42:16.343Z,5.34
2022-11-28T06:47:20.066Z,5.41
2022-11-28T06:52:26.930Z,5.48
2022-11-28T06:57:39.583Z,5.52
2022-11-28T07:02:44.161Z,5.57
2022-11-28T07:07:54.141Z,5.56
2022-11-28T07:13:09.439Z,5.55
2022-11-28T07:18:13.698Z,5.55
2022-11-28T07:23:23.345Z,5.52
2022-11-28T07:29:07.818Z,5.54
2022-11-28T07:34:44.627Z,5.54
2022-11-28T07:39:54.884Z,5.55
2022-11-28T07:45:05.589Z,5.56
2022-11-28T07:50:15.315Z,5.58
2022-11-28T08:00:43.951Z,5.62
2022-11-28T08:05:50.875Z,5.64
2022-11-28T08:11:00.849Z,5.67
2022-11-28T08:16:06.925Z,5.70
2022-11-28T08:21:21.661Z,5.66
2022-11-28T08:26:30.365Z,5.70
2022-11-28T08:31:37.937Z,5.78
2022-11-28T08:36:54.455Z,5.80
2022-11-28T08:42:02.343Z,5.78
2022-11-28T08:47:06.950Z,5.78
2022-11-28T08:52:10.840Z,5.80
2022-11-28T08:57:14.534Z,5.86
2022-11-28T09:02:21.976Z,5.94
2022-11-28T09:07:35.312Z,6.07
2022-11-28T09:12:39.060Z,6.26
2022-11-28T09:17:42.621Z,6.32
2022-11-28T09:22:48.870Z,6.38
2022-11-28T09:27:52.623Z,6.45
2022-11-28T09:33:00.209Z,6.54
2022-11-28T09:38:04.466Z,6.61
2022-11-28T09:43:27.111Z,6.64
2022-11-28T09:48:40.574Z,6.69
2022-11-28T09:54:08.490Z,6.79
2022-11-28T09:59:34.421Z,6.88
2022-11-28T10:04:51.727Z,6.87
2022-11-28T10:10:17.466Z,6.90
2022-11-28T10:15:20.867Z,6.93
2022-11-28T10:20:55.092Z,6.94
2022-11-28T10:26:07.233Z,6.96
2022-11-28T10:31:35.273Z,7.02
2022-11-28T10:37:05.079Z,7.07
2022-11-28T10:42:30.487Z,7.10
2022-11-28T10:47:45.607Z,7.17
2022-11-28T10:53:02.646Z,7.24
2022-11-28T10:58:19.957Z,7.34
2022-11-28T11:03:33.097Z,7.51
2022-11-28T11:08:43.307Z,7.66
2022-11-28T11:14:07.993Z,7.68
2022-11-28T11:19:26.745Z,7.71
2022-11-28T11:24:30.394Z,7.69
2022-11-28T11:29:37.634Z,7.68
2022-11-28T11:34:46.701Z,7.67
2022-11-28T11:39:53.052Z,7.68
2022-11-28T11:44:57.944Z,7.69
2022-11-28T11:50:07.176Z,7.73
2022-11-28T11:55:16.476Z,7.83
2022-11-28T12:00:27.860Z,7.87
2022-11-28T12:06:12.699Z,8.08
2022-11-28T12:11:14.962Z,8.13
2022-11-28T12:16:43.323Z,8.08
2022-11-28T12:22:27.996Z,8.05
2022-11-28T12:28:02.167Z,8.08
2022-11-28T12:33:08.142Z,8.20
2022-11-28T12:38:46.932Z,8.30
2022-11-28T12:44:13.907Z,8.34
2022-11-28T12:49:24.115Z,8.32
2022-11-28T12:54:59.950Z,8.28
2022-11-28T13:00:08.755Z,8.28
2022-11-28T13:05:20.012Z,8.25
2022-11-28T13:11:06.541Z,8.30
2022-11-28T13:16:39.021Z,8.24
2022-11-28T13:22:06.891Z,8.16
2022-11-28T13:27:32.814Z,8.15
2022-11-28T13:32:46.798Z,8.13
2022-11-28T13:43:49.154Z,8.04
2022-11-28T13:49:14.316Z,8.00
2022-11-28T13:54:19.249Z,7.91
2022-11-28T13:59:25.364Z,7.82
2022-11-28T14:04:31.484Z,7.72
2022-11-28T14:10:02.227Z,7.61
2022-11-28T14:15:24.811Z,7.52
2022-11-28T14:21:06.140Z,7.49
2022-11-28T14:26:35.000Z,7.45
2022-11-28T14:31:40.292Z,7.39
2022-11-28T14:36:44.660Z,7.32
2022-11-28T14:42:10.139Z,7.24
2022-11-28T14:47:35.936Z,7.13
2022-11-28T14:52:41.934Z,7.03
2022-11-28T14:57:55.470Z,6.92
2022-11-28T15:03:38.686Z,6.86
2022-11-28T15:08:52.761Z,6.76
2022-11-28T15:13:59.337Z,6.67
2022-11-28T15:19:28.657Z,6.57
2022-11-28T15:24:38.331Z,6.48
2022-11-28T15:29:51.173Z,6.38
2022-11-28T15:35:10.886Z,6.27
2022-11-28T15:40:21.999Z,6.17
2022-11-28T15:45:31.277Z,6.07
2022-11-28T15:50:53.563Z,5.96
2022-11-28T15:56:42.604Z,5.87
2022-11-28T16:01:52.563Z,5.80
2022-11-28T16:07:02.581Z,5.74
2022-11-28T16:12:26.311Z,5.67
2022-11-28T16:17:34.772Z,5.64
2022-11-28T16:22:40.792Z,5.67
2022-11-28T16:27:46.771Z,5.60
2022-11-28T16:33:25.406Z,5.52
2022-11-28T16:38:29.800Z,5.43
2022-11-28T16:49:34.745Z,5.31
2022-11-28T16:54:49.465Z,5.29
2022-11-28T16:59:54.885Z,5.23
2022-11-28T17:05:22.249Z,5.16
2022-11-28T17:10:29.625Z,5.10
2022-11-28T17:15:34.913Z,5.05
2022-11-28T17:20:53.444Z,5.01
2022-11-28T17:26:19.041Z,4.97
2022-11-28T17:31:33.448Z,4.95
2022-11-28T17:36:37.749Z,4.96
2022-11-28T17:41:45.052Z,4.96
2022-11-28T17:46:52.535Z,4.93
2022-11-28T17:51:59.025Z,4.88
2022-11-28T17:57:07.547Z,4.83
2022-11-28T18:02:11.647Z,4.80
2022-11-28T18:07:16.304Z,4.86
2022-11-28T18:12:34.220Z,4.88
2022-11-28T18:17:48.557Z,4.94
2022-11-28T18:22:51.683Z,4.95
2022-11-28T18:27:54.780Z,4.96
2022-11-28T18:32:57.804Z,5.05
2022-11-28T18:38:00.829Z,5.40
2022-11-28T18:43:05.309Z,5.21
2022-11-28T18:48:08.948Z,5.03
2022-11-28T18:53:11.971Z,4.88
2022-11-28T18:58:15.368Z,4.76
2022-11-28T19:03:18.361Z,4.65
2022-11-28T19:08:21.506Z,4.54
2022-11-28T19:13:24.578Z,4.45
2022-11-28T19:18:27.656Z,4.35
2022-11-28T19:23:30.948Z,4.26
2022-11-28T19:28:35.706Z,4.20
2022-11-28T19:33:39.685Z,4.14
2022-11-28T19:38:48.140Z,4.14
2022-11-28T19:44:02.960Z,4.20
2022-11-28T19:49:07.445Z,4.16
2022-11-28T19:54:24.351Z,4.18
2022-11-28T19:59:31.813Z,4.20
2022-11-28T20:04:43.709Z,4.20
2022-11-28T20:09:51.055Z,4.20
2022-11-28T20:14:58.104Z,4.18
2022-11-28T20:20:09.110Z,4.18
2022-11-28T20:25:16.490Z,4.14
2022-11-28T20:30:26.917Z,4.02
2022-11-28T20:35:37.908Z,3.98
2022-11-28T20:41:05.491Z,4.04
2022-11-28T20:52:11.642Z,3.76
2022-11-28T20:58:10.591Z,3.65
2022-11-28T21:03:52.648Z,3.63
2022-11-28T21:09:00.840Z,3.62
2022-11-28T21:14:08.293Z,3.55
2022-11-28T21:19:26.295Z,3.49
2022-11-28T21:24:36.265Z,3.44
2022-11-28T21:30:05.804Z,3.41
2022-11-28T21:35:13.866Z,3.41
2022-11-28T21:40:17.788Z,3.43
2022-11-28T21:45:31.891Z,3.42
2022-11-28T21:50:49.621Z,3.38
2022-11-28T21:55:57.398Z,3.34
2022-11-28T22:01:07.228Z,3.30
2022-11-28T22:12:05.190Z,3.20
2022-11-28T22:17:09.623Z,3.09
2022-11-28T22:28:10.295Z,2.94
2022-11-28T22:33:18.582Z,2.89
2022-11-28T22:39:06.858Z,2.85
2022-11-28T22:50:40.472Z,2.74
2022-11-28T22:55:43.476Z,2.71
2022-11-28T23:00:59.865Z,2.69
2022-11-28T23:12:10.168Z,2.65
2022-11-28T23:32:09.185Z,2.63
2022-11-28T23:40:54.895Z,2.55
2022-11-28T23:47:05.337Z,2.45
2022-11-28T23:58:44.370Z,2.31
